createdAt,value
2019-04-16T00:00:33.078Z,26.50
2019-04-16T00:03:02.419Z,27.02
2019-04-16T00:05:42.367Z,26.40
2019-04-16T00:08:27.438Z,27.52
2019-04-16T00:10:54.627Z,26.65
2019-04-16T00:13:28.511Z,24.85
2019-04-16T00:16:00.083Z,25.77
2019-04-16T00:18:29.406Z,24.98
2019-04-16T00:21:09.121Z,25.15
2019-04-16T00:23:38.907Z,23.38
2019-04-16T00:26:09.040Z,26.65
2019-04-16T00:28:38.388Z,24.75
2019-04-16T00:31:07.707Z,26.30
2019-04-16T00:33:39.399Z,30.32
2019-04-16T00:36:08.015Z,25.48
2019-04-16T00:38:40.901Z,23.90
2019-04-16T00:41:08.259Z,25.82
2019-04-16T00:43:38.610Z,26.68
2019-04-16T00:46:11.622Z,25.45
2019-04-16T00:48:39.814Z,23.27
2019-04-16T00:51:10.215Z,27.95
2019-04-16T00:53:39.768Z,35.17
2019-04-16T00:56:09.595Z,25.27
2019-04-16T00:58:38.878Z,27.07
2019-04-16T01:01:08.139Z,28.23
2019-04-16T01:03:37.423Z,26.10
2019-04-16T01:06:08.132Z,30.72
2019-04-16T01:08:37.838Z,25.30
2019-04-16T01:11:07.100Z,24.25
2019-04-16T01:13:36.383Z,27.87
2019-04-16T01:16:05.651Z,26.75
2019-04-16T01:18:38.456Z,26.77
2019-04-16T01:21:06.995Z,27.82
2019-04-16T01:23:36.279Z,26.02
2019-04-16T01:26:05.742Z,29.07
2019-04-16T01:28:53.198Z,26.73
2019-04-16T01:31:31.058Z,27.67
2019-04-16T01:34:18.133Z,30.05
2019-04-16T01:37:06.009Z,28.23
2019-04-16T01:39:40.043Z,29.87
2019-04-16T01:42:10.906Z,27.73
2019-04-16T01:44:40.187Z,25.82
2019-04-16T01:47:09.446Z,28.57
2019-04-16T01:49:39.347Z,32.17
2019-04-16T01:52:09.876Z,28.32
2019-04-16T01:54:39.125Z,27.65
2019-04-16T01:57:08.502Z,27.32
2019-04-16T01:59:37.751Z,25.37
2019-04-16T02:02:07.036Z,26.15
2019-04-16T02:04:36.299Z,28.70
2019-04-16T02:07:06.651Z,24.60
2019-04-16T02:09:35.907Z,24.40
2019-04-16T02:12:05.191Z,25.82
2019-04-16T02:14:34.455Z,24.92
2019-04-16T02:17:03.870Z,34.23
2019-04-16T02:19:33.621Z,26.48
2019-04-16T02:22:02.967Z,28.10
2019-04-16T02:24:32.231Z,27.22
2019-04-16T02:27:01.515Z,28.12
2019-04-16T02:29:30.802Z,24.85
2019-04-16T02:32:00.104Z,26.40
2019-04-16T02:34:29.371Z,29.10
2019-04-16T02:37:02.206Z,26.57
2019-04-16T02:39:46.981Z,27.40
2019-04-16T02:42:00.855Z,29.48
2019-04-16T02:44:30.239Z,28.05
2019-04-16T02:47:05.458Z,30.80
2019-04-16T02:49:30.440Z,28.98
2019-04-16T02:52:04.399Z,34.27
2019-04-16T02:54:38.260Z,30.25
2019-04-16T02:57:18.376Z,29.87
2019-04-16T02:59:49.210Z,33.40
2019-04-16T03:02:32.466Z,33.73
2019-04-16T03:05:15.376Z,27.20
2019-04-16T03:07:44.662Z,29.18
2019-04-16T03:10:14.041Z,31.25
2019-04-16T03:12:43.412Z,29.27
2019-04-16T03:15:15.355Z,29.97
2019-04-16T03:17:47.611Z,32.23
2019-04-16T03:20:20.900Z,33.53
2019-04-16T03:22:48.947Z,30.82
2019-04-16T03:25:18.233Z,30.32
2019-04-16T03:27:47.491Z,31.42
2019-04-16T03:30:16.958Z,30.72
2019-04-16T03:32:49.860Z,34.00
2019-04-16T03:35:19.222Z,30.68
2019-04-16T03:37:48.498Z,27.58
2019-04-16T03:40:18.947Z,28.85
2019-04-16T03:42:48.657Z,36.40
2019-04-16T03:45:17.942Z,36.48
2019-04-16T03:47:50.936Z,29.87
2019-04-16T03:50:18.134Z,33.75
2019-04-16T03:52:47.396Z,29.25
2019-04-16T03:55:16.767Z,36.80
2019-04-16T03:57:46.026Z,34.90
2019-04-16T04:00:15.352Z,32.85
2019-04-16T04:02:44.577Z,32.05
2019-04-16T04:05:13.861Z,33.38
2019-04-16T04:07:44.262Z,28.98
2019-04-16T04:10:14.032Z,32.10
2019-04-16T04:12:45.672Z,32.10
2019-04-16T04:15:14.198Z,31.12
2019-04-16T04:17:43.463Z,34.78
2019-04-16T04:20:14.655Z,30.50
2019-04-16T04:22:43.631Z,29.45
2019-04-16T04:25:12.903Z,29.30
2019-04-16T04:27:43.609Z,28.02
2019-04-16T04:30:13.071Z,32.42
2019-04-16T04:32:42.359Z,31.00
2019-04-16T04:35:11.620Z,31.65
2019-04-16T04:37:40.926Z,29.32
2019-04-16T04:40:12.963Z,30.88
2019-04-16T04:42:41.161Z,32.13
2019-04-16T04:45:10.643Z,28.83
2019-04-16T04:47:40.002Z,28.60
2019-04-16T04:50:09.260Z,28.83
2019-04-16T04:52:38.547Z,29.77
2019-04-16T04:55:07.878Z,30.85
2019-04-16T04:57:37.171Z,30.60
2019-04-16T05:00:09.743Z,29.55
2019-04-16T05:02:39.204Z,30.05
2019-04-16T05:05:25.948Z,30.20
2019-04-16T05:10:25.485Z,32.70
2019-04-16T05:12:54.762Z,26.93
2019-04-16T05:15:26.464Z,32.50
2019-04-16T05:17:54.958Z,30.08
2019-04-16T05:20:24.243Z,31.95
2019-04-16T05:22:54.537Z,33.55
2019-04-16T05:25:24.624Z,31.90
2019-04-16T05:27:53.951Z,30.55
2019-04-16T05:30:23.310Z,31.87
2019-04-16T05:32:52.619Z,29.12
2019-04-16T05:35:21.923Z,33.53
2019-04-16T05:37:52.220Z,28.90
2019-04-16T05:40:21.671Z,33.50
2019-04-16T05:42:52.653Z,29.85
2019-04-16T05:45:22.095Z,32.23
2019-04-16T05:47:51.360Z,31.93
2019-04-16T05:50:20.811Z,25.08
2019-04-16T05:52:50.099Z,27.80
2019-04-16T05:55:27.011Z,28.10
2019-04-16T05:57:58.862Z,27.93
2019-04-16T06:00:46.294Z,28.10
2019-04-16T06:03:20.622Z,30.90
2019-04-16T06:05:46.587Z,30.90
2019-04-16T06:08:15.894Z,25.57
2019-04-16T06:10:49.784Z,27.35
2019-04-16T06:13:24.434Z,29.82
2019-04-16T06:15:55.343Z,32.28
2019-04-16T06:18:37.998Z,29.27
2019-04-16T06:21:25.833Z,30.90
2019-04-16T06:24:12.948Z,32.00
2019-04-16T06:27:02.211Z,33.25
2019-04-16T06:29:33.123Z,32.15
2019-04-16T06:32:08.445Z,33.13
2019-04-16T06:34:45.295Z,30.33
2019-04-16T06:37:26.604Z,27.22
2019-04-16T06:40:06.498Z,33.92
2019-04-16T06:42:46.470Z,27.27
2019-04-16T06:45:17.425Z,29.35
2019-04-16T06:50:47.619Z,30.57
2019-04-16T06:53:19.564Z,28.57
2019-04-16T06:55:54.907Z,30.77
2019-04-16T06:58:28.507Z,28.12
2019-04-16T07:01:05.845Z,27.65
2019-04-16T07:03:51.501Z,30.48
2019-04-16T07:06:38.696Z,32.70
2019-04-16T07:09:15.555Z,31.37
2019-04-16T07:11:54.243Z,29.00
2019-04-16T07:14:17.602Z,23.00
2019-04-16T07:16:46.972Z,28.27
2019-04-16T07:19:17.390Z,28.05
2019-04-16T07:21:49.648Z,27.52
2019-04-16T07:24:22.268Z,27.07
2019-04-16T07:26:49.744Z,25.08
2019-04-16T07:29:31.574Z,27.37
2019-04-16T07:31:59.238Z,29.20
2019-04-16T07:34:36.209Z,25.23
2019-04-16T07:37:23.668Z,28.52
2019-04-16T07:40:08.314Z,26.37
2019-04-16T07:42:51.322Z,27.07
2019-04-16T07:45:12.795Z,28.02
2019-04-16T07:47:43.976Z,28.17
2019-04-16T07:50:32.433Z,27.93
2019-04-16T07:53:13.326Z,24.12
2019-04-16T07:55:47.735Z,23.83
2019-04-16T07:58:17.008Z,25.25
2019-04-16T08:00:46.639Z,23.02
2019-04-16T08:03:15.979Z,25.55
2019-04-16T08:05:45.281Z,23.75
2019-04-16T08:08:15.606Z,28.40
2019-04-16T08:10:44.891Z,23.65
2019-04-16T08:13:18.497Z,21.97
2019-04-16T08:15:48.610Z,26.07
2019-04-16T08:18:17.899Z,25.90
2019-04-16T08:21:00.644Z,25.35
2019-04-16T08:23:25.427Z,22.93
2019-04-16T08:26:02.740Z,26.33
2019-04-16T08:28:26.441Z,21.93
2019-04-16T08:30:55.779Z,26.97
2019-04-16T08:33:28.284Z,22.77
2019-04-16T08:35:56.153Z,21.50
2019-04-16T08:38:26.179Z,22.50
2019-04-16T08:40:55.631Z,27.07
2019-04-16T08:43:26.739Z,26.57
2019-04-16T08:45:56.154Z,24.02
2019-04-16T08:48:25.464Z,22.67
2019-04-16T08:50:57.897Z,21.23
2019-04-16T08:53:25.718Z,25.95
2019-04-16T08:55:55.067Z,24.25
2019-04-16T08:58:24.364Z,25.00
2019-04-16T09:00:53.874Z,21.27
2019-04-16T09:03:26.862Z,24.25
2019-04-16T09:05:55.247Z,19.67
2019-04-16T09:08:35.395Z,25.77
2019-04-16T09:11:04.914Z,20.80
2019-04-16T09:13:44.499Z,35.63
2019-04-16T09:16:12.991Z,23.15
2019-04-16T09:18:46.911Z,24.87
2019-04-16T09:21:16.183Z,24.52
2019-04-16T09:23:47.115Z,23.10
2019-04-16T09:26:30.221Z,22.90
2019-04-16T09:29:10.486Z,19.65
2019-04-16T09:31:41.487Z,23.22
2019-04-16T09:34:28.939Z,19.42
2019-04-16T09:37:14.923Z,20.17
2019-04-16T09:39:51.716Z,21.25
2019-04-16T09:42:21.357Z,22.52
2019-04-16T09:44:51.024Z,21.17
2019-04-16T09:47:20.684Z,24.00
2019-04-16T09:49:52.950Z,19.32
2019-04-16T09:52:26.183Z,18.90
2019-04-16T09:54:57.264Z,20.25
2019-04-16T09:57:37.529Z,24.18
2019-04-16T10:00:08.839Z,21.42
2019-04-16T10:02:39.815Z,18.17
2019-04-16T10:05:09.247Z,19.07
2019-04-16T10:07:40.279Z,18.07
2019-04-16T10:10:10.760Z,20.75
2019-04-16T10:12:40.104Z,21.73
2019-04-16T10:15:09.671Z,26.68
2019-04-16T10:17:38.943Z,18.50
2019-04-16T10:20:08.271Z,25.92
2019-04-16T10:22:37.547Z,18.20
2019-04-16T10:25:08.746Z,18.12
2019-04-16T10:27:42.551Z,19.23
2019-04-16T10:30:17.517Z,18.32
2019-04-16T10:32:46.824Z,17.00
2019-04-16T10:35:16.191Z,16.25
2019-04-16T10:37:46.646Z,17.05
2019-04-16T10:40:32.720Z,16.25
2019-04-16T10:43:20.306Z,19.07
2019-04-16T10:45:51.341Z,22.75
2019-04-16T10:48:22.267Z,15.13
2019-04-16T10:50:59.110Z,17.92
2019-04-16T10:53:30.054Z,14.75
2019-04-16T10:56:20.660Z,15.88
2019-04-16T10:59:04.101Z,15.90
2019-04-16T11:01:35.332Z,13.72
2019-04-16T11:04:19.201Z,16.90
2019-04-16T11:06:50.199Z,17.00
2019-04-16T11:09:19.674Z,18.45
2019-04-16T11:11:48.973Z,17.90
2019-04-16T11:14:18.356Z,19.07
2019-04-16T11:16:50.431Z,16.82
2019-04-16T11:19:20.099Z,13.62
2019-04-16T11:21:49.347Z,13.03
2019-04-16T11:24:20.407Z,15.32
2019-04-16T11:26:49.527Z,16.73
2019-04-16T11:29:18.887Z,16.60
2019-04-16T11:31:48.235Z,16.50
2019-04-16T11:34:17.516Z,14.40
2019-04-16T11:36:46.804Z,17.87
2019-04-16T11:39:16.167Z,22.98
2019-04-16T11:41:45.520Z,13.30
2019-04-16T11:44:16.808Z,13.03
2019-04-16T11:46:45.915Z,15.83
2019-04-16T11:49:15.324Z,15.20
2019-04-16T11:51:44.602Z,16.17
2019-04-16T11:54:14.027Z,14.93
2019-04-16T11:56:45.198Z,16.48
2019-04-16T11:59:14.511Z,14.65
2019-04-16T12:01:55.425Z,20.62
2019-04-16T12:04:26.328Z,14.10
2019-04-16T12:07:14.146Z,17.30
2019-04-16T12:10:01.722Z,17.32
2019-04-16T12:12:33.004Z,15.95
2019-04-16T12:15:06.744Z,18.75
2019-04-16T12:17:52.761Z,20.17
2019-04-16T12:20:24.752Z,17.10
2019-04-16T12:23:12.075Z,22.13
2019-04-16T12:25:58.402Z,14.73
2019-04-16T12:28:48.451Z,15.58
2019-04-16T12:31:37.612Z,18.70
2019-04-16T12:34:08.507Z,14.55
2019-04-16T12:36:39.510Z,15.70
2019-04-16T12:39:22.355Z,15.72
2019-04-16T12:47:49.037Z,14.27
2019-04-16T12:50:28.338Z,16.48
2019-04-16T12:53:02.331Z,18.62
2019-04-16T12:55:33.520Z,15.03
2019-04-16T12:58:10.526Z,19.17
2019-04-16T13:00:41.431Z,22.58
2019-04-16T13:03:16.403Z,15.88
2019-04-16T13:05:53.464Z,18.00
2019-04-16T13:08:26.151Z,16.77
2019-04-16T13:11:02.786Z,20.08
2019-04-16T13:13:51.069Z,16.42
2019-04-16T13:16:24.756Z,16.87
2019-04-16T13:19:08.046Z,22.22
2019-04-16T13:21:48.040Z,21.12
2019-04-16T13:24:19.038Z,15.40
2019-04-16T13:26:52.904Z,15.32
2019-04-16T13:29:22.263Z,18.00
2019-04-16T13:31:51.604Z,15.98
2019-04-16T13:34:21.967Z,20.57
2019-04-16T13:36:51.835Z,15.95
2019-04-16T13:39:23.175Z,15.70
2019-04-16T13:41:52.463Z,17.60
2019-04-16T13:44:23.374Z,24.50
2019-04-16T13:46:52.740Z,16.57
2019-04-16T13:49:31.671Z,21.62
2019-04-16T13:52:00.645Z,14.60
2019-04-16T13:54:53.953Z,16.90
2019-04-16T13:57:26.027Z,19.67
2019-04-16T14:00:06.071Z,18.12
2019-04-16T14:02:39.880Z,19.92
2019-04-16T14:05:10.966Z,14.98
2019-04-16T14:07:40.323Z,13.93
2019-04-16T14:10:09.859Z,13.78
2019-04-16T14:12:42.082Z,17.23
2019-04-16T14:15:10.611Z,19.15
2019-04-16T14:17:51.748Z,16.90
2019-04-16T14:20:12.826Z,16.87
2019-04-16T14:22:42.211Z,17.42
2019-04-16T14:25:11.543Z,14.93
2019-04-16T14:27:41.961Z,14.13
2019-04-16T14:30:14.302Z,25.40
2019-04-16T14:32:45.491Z,19.55
2019-04-16T14:35:32.454Z,16.82
2019-04-16T14:37:51.202Z,14.55
2019-04-16T14:40:22.299Z,17.25
2019-04-16T14:42:56.182Z,17.67
2019-04-16T14:45:24.377Z,15.78
2019-04-16T14:47:53.716Z,16.12
2019-04-16T14:50:24.316Z,16.60
2019-04-16T14:52:53.850Z,20.40
2019-04-16T14:55:24.775Z,14.45
2019-04-16T14:58:16.027Z,14.63
2019-04-16T15:00:47.448Z,14.70
2019-04-16T15:03:18.429Z,16.48
2019-04-16T15:05:50.454Z,21.80
2019-04-16T15:08:26.192Z,12.73
2019-04-16T15:11:15.846Z,13.70
2019-04-16T15:13:57.012Z,15.15
2019-04-16T15:16:32.153Z,14.75
2019-04-16T15:19:03.375Z,16.65
2019-04-16T15:21:37.053Z,15.03
2019-04-16T15:24:10.915Z,13.15
2019-04-16T15:26:44.920Z,14.00
2019-04-16T15:29:16.019Z,17.65
2019-04-16T15:31:56.297Z,17.32
2019-04-16T15:34:29.983Z,14.15
2019-04-16T15:37:06.782Z,15.63
2019-04-16T15:39:46.589Z,15.90
2019-04-16T15:42:29.879Z,19.37
2019-04-16T15:45:00.788Z,13.05
2019-04-16T15:47:35.335Z,12.80
2019-04-16T15:50:16.876Z,13.08
2019-04-16T15:52:47.822Z,11.97
2019-04-16T15:55:24.874Z,13.58
2019-04-16T15:57:55.748Z,15.38
2019-04-16T16:00:26.727Z,15.05
2019-04-16T16:03:13.982Z,11.50
2019-04-16T16:05:47.678Z,12.28
2019-04-16T16:08:18.611Z,13.45
2019-04-16T16:10:52.379Z,13.80
2019-04-16T16:13:26.320Z,12.58
2019-04-16T16:15:53.700Z,15.95
2019-04-16T16:18:23.050Z,13.72
2019-04-16T16:20:52.307Z,12.07
2019-04-16T16:23:21.599Z,12.98
2019-04-16T16:25:50.863Z,12.33
2019-04-16T16:28:20.159Z,20.60
2019-04-16T16:30:49.422Z,13.75
2019-04-16T16:33:18.815Z,16.37
2019-04-16T16:35:57.767Z,15.50
2019-04-16T16:38:20.992Z,15.70
2019-04-16T16:40:50.580Z,21.02
2019-04-16T16:43:19.917Z,19.27
2019-04-16T16:45:50.892Z,14.00
2019-04-16T16:48:21.884Z,13.88
2019-04-16T16:50:51.885Z,17.90
2019-04-16T16:53:39.316Z,13.60
2019-04-16T16:56:13.736Z,17.30
2019-04-16T16:58:44.709Z,14.33
2019-04-16T17:01:34.105Z,15.13
2019-04-16T17:04:06.120Z,14.07
2019-04-16T17:06:35.455Z,15.70
2019-04-16T17:09:05.778Z,16.45
2019-04-16T17:11:37.023Z,19.10
2019-04-16T17:14:06.379Z,37.38
2019-04-16T17:16:35.679Z,20.75
2019-04-16T17:19:06.016Z,21.30
2019-04-16T17:21:35.307Z,17.67
2019-04-16T17:24:04.610Z,17.02
2019-04-16T17:26:33.870Z,16.70
2019-04-16T17:29:03.243Z,18.23
2019-04-16T17:31:35.829Z,18.23
2019-04-16T17:34:03.472Z,19.15
2019-04-16T17:36:33.127Z,15.53
2019-04-16T17:39:02.467Z,17.23
2019-04-16T17:41:44.667Z,19.48
2019-04-16T17:44:27.255Z,14.65
2019-04-16T17:47:06.345Z,18.37
2019-04-16T17:49:43.231Z,16.60
2019-04-16T17:52:26.152Z,21.52
2019-04-16T17:55:06.256Z,15.85
2019-04-16T17:57:43.185Z,15.25
2019-04-16T18:00:20.050Z,17.65
2019-04-16T18:02:50.984Z,16.97
2019-04-16T18:05:28.106Z,19.77
2019-04-16T18:08:11.177Z,19.67
2019-04-16T18:10:42.086Z,24.45
2019-04-16T18:13:13.087Z,16.07
2019-04-16T18:15:47.104Z,19.80
2019-04-16T18:18:18.075Z,27.05
2019-04-16T18:20:57.289Z,19.85
2019-04-16T18:23:30.566Z,22.35
2019-04-16T18:26:01.547Z,19.67
2019-04-16T18:28:32.558Z,21.30
2019-04-16T18:31:04.537Z,20.05
2019-04-16T18:33:35.549Z,18.30
2019-04-16T18:36:09.418Z,24.02
2019-04-16T18:38:49.611Z,17.48
2019-04-16T18:41:20.526Z,22.35
2019-04-16T18:44:29.162Z,16.20
2019-04-16T18:47:10.792Z,27.00
2019-04-16T18:49:40.159Z,16.27
2019-04-16T18:52:09.591Z,22.22
2019-04-16T18:54:38.882Z,15.95
2019-04-16T18:57:09.411Z,20.43
2019-04-16T18:59:38.699Z,23.73
2019-04-16T19:02:09.780Z,20.50
2019-04-16T19:04:39.284Z,18.50
2019-04-16T19:07:08.582Z,18.40
2019-04-16T19:09:38.036Z,21.00
2019-04-16T19:12:07.322Z,17.70
2019-04-16T19:14:36.930Z,22.75
2019-04-16T19:17:06.348Z,17.62
2019-04-16T19:19:35.614Z,16.77
2019-04-16T19:22:05.229Z,14.50
2019-04-16T19:24:35.515Z,19.70
2019-04-16T19:27:04.920Z,21.60
2019-04-16T19:29:34.346Z,18.90
2019-04-16T19:32:03.640Z,18.30
2019-04-16T19:34:32.927Z,17.42
2019-04-16T19:37:02.215Z,16.42
2019-04-16T19:39:31.551Z,21.27
2019-04-16T19:42:00.838Z,20.27
2019-04-16T19:44:33.346Z,13.22
2019-04-16T19:47:01.255Z,14.47
2019-04-16T19:49:30.571Z,17.70
2019-04-16T19:51:59.863Z,15.98
2019-04-16T19:54:31.684Z,16.05
2019-04-16T19:57:01.462Z,17.45
2019-04-16T19:59:31.867Z,17.75
2019-04-16T20:02:01.977Z,21.25
2019-04-16T20:04:32.719Z,18.45
2019-04-16T20:07:02.368Z,18.67
2019-04-16T20:09:32.920Z,18.90
2019-04-16T20:12:02.280Z,15.32
2019-04-16T20:14:35.375Z,17.73
2019-04-16T20:17:02.631Z,18.67
2019-04-16T20:19:31.991Z,21.12
2019-04-16T20:22:01.255Z,19.15
2019-04-16T20:24:43.257Z,15.85
2019-04-16T20:27:12.519Z,12.73
2019-04-16T20:29:41.871Z,13.55
2019-04-16T20:32:11.203Z,14.50
2019-04-16T20:34:42.343Z,16.00
2019-04-16T20:37:11.375Z,17.75
2019-04-16T20:39:41.037Z,15.28
2019-04-16T20:42:10.303Z,13.80
2019-04-16T20:44:39.594Z,13.80
2019-04-16T20:47:09.060Z,15.03
2019-04-16T20:49:38.346Z,14.53
2019-04-16T20:52:07.676Z,14.50
2019-04-16T20:54:38.231Z,11.93
2019-04-16T20:57:07.487Z,14.83
2019-04-16T20:59:39.202Z,13.40
2019-04-16T21:02:07.743Z,18.23
2019-04-16T21:04:37.070Z,14.60
2019-04-16T21:07:06.344Z,15.98
2019-04-16T21:09:35.630Z,17.07
2019-04-16T21:12:05.055Z,16.20
2019-04-16T21:14:34.419Z,15.10
2019-04-16T21:17:06.897Z,15.18
2019-04-16T21:19:47.977Z,17.32
2019-04-16T21:22:17.883Z,17.20
2019-04-16T21:24:47.172Z,19.30
2019-04-16T21:27:16.463Z,16.25
2019-04-16T21:29:46.202Z,15.08
2019-04-16T21:32:23.163Z,18.02
2019-04-16T21:34:58.654Z,15.20
2019-04-16T21:37:38.532Z,17.20
2019-04-16T21:40:08.665Z,16.42
2019-04-16T21:42:37.952Z,16.40
2019-04-16T21:45:07.357Z,19.45
2019-04-16T21:47:36.715Z,20.37
2019-04-16T21:50:06.853Z,18.82
2019-04-16T21:52:36.142Z,16.30
2019-04-16T21:55:06.658Z,16.40
2019-04-16T21:57:35.955Z,17.57
2019-04-16T22:00:09.882Z,17.95
2019-04-16T22:02:41.666Z,20.23
2019-04-16T22:05:11.002Z,19.77
2019-04-16T22:07:40.367Z,16.50
2019-04-16T22:10:09.694Z,17.98
2019-04-16T22:12:39.254Z,17.98
2019-04-16T22:15:08.527Z,16.77
2019-04-16T22:17:37.882Z,22.30
2019-04-16T22:20:07.247Z,17.50
2019-04-16T22:22:37.514Z,20.17
2019-04-16T22:25:06.870Z,16.60
2019-04-16T22:27:36.863Z,16.05
2019-04-16T22:30:07.071Z,19.55
2019-04-16T22:32:36.475Z,18.25
2019-04-16T22:35:07.440Z,16.95
2019-04-16T22:37:36.696Z,23.80
2019-04-16T22:40:13.847Z,16.57
2019-04-16T22:43:06.885Z,19.05
2019-04-16T22:45:36.818Z,17.00
2019-04-16T22:48:06.228Z,20.23
2019-04-16T22:50:38.119Z,16.10
2019-04-16T22:53:06.629Z,18.70
2019-04-16T22:55:36.466Z,18.37
2019-04-16T22:58:05.801Z,15.48
2019-04-16T23:00:36.799Z,16.17
2019-04-16T23:03:06.243Z,16.82
2019-04-16T23:05:35.546Z,23.07
2019-04-16T23:08:04.822Z,21.05
2019-04-16T23:10:34.107Z,18.50
2019-04-16T23:13:03.378Z,17.00
2019-04-16T23:15:33.312Z,17.37
2019-04-16T23:18:02.551Z,18.55
2019-04-16T23:20:35.913Z,20.45
2019-04-16T23:23:02.739Z,19.87
2019-04-16T23:25:32.031Z,19.73
2019-04-16T23:28:01.460Z,20.30
2019-04-16T23:30:30.872Z,20.68
2019-04-16T23:33:01.393Z,21.60
2019-04-16T23:35:31.131Z,18.30
2019-04-16T23:38:01.052Z,18.87
2019-04-16T23:40:31.631Z,21.73
2019-04-16T23:43:22.216Z,17.60
2019-04-16T23:46:11.528Z,24.95
2019-04-16T23:48:44.748Z,17.00
2019-04-16T23:51:15.006Z,29.05
2019-04-16T23:53:51.827Z,27.25
2019-04-16T23:56:25.721Z,26.60
2019-04-16T23:59:01.466Z,22.87
